createdAt,value
2023-04-16T00:02:28.250Z,1.71
2023-04-16T00:05:14.930Z,1.73
2023-04-16T00:08:00.684Z,1.74
2023-04-16T00:10:46.340Z,1.74
2023-04-16T00:13:31.782Z,1.75
2023-04-16T00:16:17.360Z,1.77
2023-04-16T00:19:02.790Z,1.80
2023-04-16T00:21:48.120Z,1.81
2023-04-16T00:24:33.668Z,1.82
2023-04-16T00:27:20.344Z,1.86
2023-04-16T00:30:08.889Z,1.86
2023-04-16T00:32:54.702Z,1.86
2023-04-16T00:35:40.125Z,1.88
2023-04-16T00:38:29.943Z,1.87
2023-04-16T00:41:15.614Z,1.86
2023-04-16T00:44:01.598Z,1.86
2023-04-16T00:46:47.548Z,1.87
2023-04-16T00:49:33.495Z,1.86
2023-04-16T00:52:18.912Z,1.89
2023-04-16T00:55:07.545Z,1.90
2023-04-16T00:57:53.648Z,1.93
2023-04-16T01:00:38.913Z,1.94
2023-04-16T01:03:30.902Z,1.95
2023-04-16T01:06:18.139Z,1.95
2023-04-16T01:09:03.959Z,1.92
2023-04-16T01:11:49.573Z,1.92
2023-04-16T01:14:36.574Z,1.88
2023-04-16T01:17:21.935Z,1.87
2023-04-16T01:20:07.677Z,1.84
2023-04-16T01:22:53.003Z,1.82
2023-04-16T01:25:39.660Z,1.80
2023-04-16T01:28:25.470Z,1.78
2023-04-16T01:31:10.979Z,1.76
2023-04-16T01:34:16.810Z,1.77
2023-04-16T01:37:04.286Z,1.76
2023-04-16T01:39:50.442Z,1.75
2023-04-16T01:42:36.201Z,1.76
2023-04-16T01:45:21.914Z,1.75
2023-04-16T01:48:08.558Z,1.76
2023-04-16T01:50:53.953Z,1.75
2023-04-16T01:53:39.631Z,1.73
2023-04-16T01:56:25.530Z,1.74
2023-04-16T01:59:12.440Z,1.73
2023-04-16T02:02:11.202Z,1.72
2023-04-16T02:04:57.689Z,1.72
2023-04-16T02:07:43.178Z,1.71
2023-04-16T02:10:28.383Z,1.71
2023-04-16T02:13:15.784Z,1.70
2023-04-16T02:16:03.941Z,1.72
2023-04-16T02:19:16.211Z,1.73
2023-04-16T02:22:02.567Z,1.73
2023-04-16T02:24:47.798Z,1.72
2023-04-16T02:27:33.299Z,1.70
2023-04-16T02:30:31.283Z,1.72
2023-04-16T02:33:16.863Z,1.72
2023-04-16T02:36:16.873Z,1.74
2023-04-16T02:39:02.313Z,1.74
2023-04-16T02:41:47.762Z,1.75
2023-04-16T02:44:33.307Z,1.76
2023-04-16T02:47:18.730Z,1.78
2023-04-16T02:50:04.524Z,1.82
2023-04-16T02:52:51.610Z,1.86
2023-04-16T02:55:37.690Z,1.89
2023-04-16T02:58:25.752Z,1.93
2023-04-16T03:01:11.462Z,1.97
2023-04-16T03:03:57.077Z,2.01
2023-04-16T03:06:42.637Z,2.03
2023-04-16T03:09:28.272Z,2.05
2023-04-16T03:12:13.808Z,2.04
2023-04-16T03:14:59.256Z,2.01
2023-04-16T03:17:45.115Z,1.99
2023-04-16T03:20:30.919Z,1.96
2023-04-16T03:23:16.707Z,1.96
2023-04-16T03:26:03.282Z,1.94
2023-04-16T03:28:49.241Z,1.95
2023-04-16T03:31:35.367Z,1.94
2023-04-16T03:34:21.428Z,1.95
2023-04-16T03:37:07.175Z,1.95
2023-04-16T03:39:53.461Z,1.93
2023-04-16T03:42:39.233Z,1.93
2023-04-16T03:45:24.972Z,1.92
2023-04-16T03:48:10.901Z,1.91
2023-04-16T03:50:56.353Z,1.94
2023-04-16T03:53:41.762Z,1.91
2023-04-16T03:56:27.687Z,1.91
2023-04-16T03:59:13.211Z,1.91
2023-04-16T04:01:58.884Z,1.92
2023-04-16T04:04:45.201Z,1.92
2023-04-16T04:07:31.110Z,1.93
2023-04-16T04:10:16.976Z,1.91
2023-04-16T04:13:04.411Z,1.90
2023-04-16T04:15:50.344Z,1.88
2023-04-16T04:18:35.978Z,1.88
2023-04-16T04:21:23.653Z,1.87
2023-04-16T04:24:09.354Z,1.88
2023-04-16T04:26:55.052Z,1.87
2023-04-16T04:29:40.524Z,1.86
2023-04-16T04:32:26.107Z,1.87
2023-04-16T04:35:11.798Z,1.85
2023-04-16T04:37:57.643Z,1.82
2023-04-16T04:40:43.155Z,1.83
2023-04-16T04:43:28.649Z,1.85
2023-04-16T04:46:14.185Z,1.89
2023-04-16T04:48:59.962Z,1.91
2023-04-16T04:51:45.419Z,1.90
2023-04-16T04:54:31.818Z,1.89
2023-04-16T04:57:17.427Z,1.88
2023-04-16T05:00:04.399Z,1.91
2023-04-16T05:02:58.010Z,1.89
2023-04-16T05:05:43.400Z,1.89
2023-04-16T05:08:28.953Z,1.86
2023-04-16T05:11:14.491Z,1.81
2023-04-16T05:13:59.935Z,1.75
2023-04-16T05:16:45.694Z,1.69
2023-04-16T05:19:31.610Z,1.66
2023-04-16T05:22:19.040Z,1.57
2023-04-16T05:25:04.917Z,1.53
2023-04-16T05:27:50.383Z,1.49
2023-04-16T05:30:36.097Z,1.44
2023-04-16T05:33:21.837Z,1.48
2023-04-16T05:36:07.458Z,1.50
2023-04-16T05:38:53.235Z,1.51
2023-04-16T05:41:38.670Z,1.51
2023-04-16T05:44:24.128Z,1.49
2023-04-16T05:47:09.665Z,1.50
2023-04-16T05:49:55.012Z,1.52
2023-04-16T05:52:40.697Z,1.57
2023-04-16T05:55:26.175Z,1.62
2023-04-16T05:58:11.683Z,1.67
2023-04-16T06:00:57.043Z,1.76
2023-04-16T06:03:42.796Z,1.81
2023-04-16T06:06:28.531Z,1.88
2023-04-16T06:09:13.914Z,1.98
2023-04-16T06:12:00.043Z,2.11
2023-04-16T06:14:45.797Z,2.17
2023-04-16T06:17:31.206Z,2.20
2023-04-16T06:20:16.940Z,2.25
2023-04-16T06:23:02.241Z,2.35
2023-04-16T06:25:47.784Z,2.38
2023-04-16T06:28:33.149Z,2.41
2023-04-16T06:31:18.548Z,2.52
2023-04-16T06:34:03.930Z,2.61
2023-04-16T06:36:49.356Z,2.68
2023-04-16T06:39:34.977Z,2.76
2023-04-16T06:42:20.850Z,2.80
2023-04-16T06:45:07.311Z,2.89
2023-04-16T06:47:53.275Z,2.92
2023-04-16T06:50:39.003Z,2.93
2023-04-16T06:53:24.774Z,3.05
2023-04-16T06:56:10.438Z,3.15
2023-04-16T06:58:57.903Z,3.18
2023-04-16T07:01:43.892Z,3.23
2023-04-16T07:04:29.397Z,3.23
2023-04-16T07:07:14.966Z,3.27
2023-04-16T07:10:00.549Z,3.32
2023-04-16T07:12:46.033Z,3.41
2023-04-16T07:15:31.580Z,3.51
2023-04-16T07:18:17.522Z,3.61
2023-04-16T07:21:04.453Z,3.71
2023-04-16T07:23:50.714Z,3.81
2023-04-16T07:26:37.902Z,3.92
2023-04-16T07:29:23.633Z,4.05
2023-04-16T07:32:09.398Z,4.20
2023-04-16T07:34:56.037Z,4.34
2023-04-16T07:37:41.768Z,4.50
2023-04-16T07:40:27.973Z,4.54
2023-04-16T07:43:16.278Z,4.59
2023-04-16T07:46:01.827Z,4.74
2023-04-16T07:48:47.925Z,4.89
2023-04-16T07:51:33.561Z,5.01
2023-04-16T07:54:20.059Z,5.16
2023-04-16T07:57:05.564Z,5.25
2023-04-16T07:59:51.459Z,5.39
2023-04-16T08:02:37.395Z,5.55
2023-04-16T08:05:22.866Z,5.65
2023-04-16T08:08:08.321Z,5.70
2023-04-16T08:10:56.005Z,5.75
2023-04-16T08:13:41.600Z,5.83
2023-04-16T08:16:27.159Z,5.93
2023-04-16T08:19:13.068Z,6.03
2023-04-16T08:21:59.168Z,6.16
2023-04-16T08:24:44.740Z,6.32
2023-04-16T08:27:30.141Z,6.48
2023-04-16T08:30:16.835Z,6.61
2023-04-16T08:33:02.976Z,6.73
2023-04-16T08:35:48.533Z,6.87
2023-04-16T08:38:34.418Z,7.05
2023-04-16T08:41:22.223Z,7.21
2023-04-16T08:44:09.717Z,7.38
2023-04-16T08:46:59.427Z,7.52
2023-04-16T08:49:48.754Z,7.64
2023-04-16T08:52:42.838Z,7.79
2023-04-16T08:55:37.842Z,7.91
2023-04-16T08:58:26.225Z,7.98
2023-04-16T09:01:12.178Z,8.11
2023-04-16T09:03:58.020Z,8.24
2023-04-16T09:06:44.292Z,8.41
2023-04-16T09:09:32.335Z,8.52
2023-04-16T09:12:23.355Z,8.60
2023-04-16T09:15:11.322Z,8.72
2023-04-16T09:17:57.710Z,8.88
2023-04-16T09:20:43.107Z,9.05
2023-04-16T09:23:29.730Z,9.19
2023-04-16T09:26:16.218Z,9.37
2023-04-16T09:29:02.399Z,9.50
2023-04-16T09:32:08.586Z,9.62
2023-04-16T09:34:59.747Z,9.74
2023-04-16T09:37:56.081Z,9.88
2023-04-16T09:40:42.080Z,10.02
2023-04-16T09:43:27.770Z,10.15
2023-04-16T09:46:13.315Z,10.30
2023-04-16T09:48:58.718Z,10.46
2023-04-16T09:51:49.755Z,10.64
2023-04-16T09:54:35.269Z,10.78
2023-04-16T09:57:22.186Z,10.87
2023-04-16T10:00:09.486Z,10.96
2023-04-16T10:03:05.880Z,11.08
2023-04-16T10:05:53.950Z,11.20
2023-04-16T10:08:44.223Z,11.34
2023-04-16T10:11:30.900Z,11.50
2023-04-16T10:14:16.280Z,11.63
2023-04-16T10:17:03.574Z,11.75
2023-04-16T10:19:50.835Z,11.77
2023-04-16T10:22:37.106Z,11.85
2023-04-16T10:25:23.381Z,11.90
2023-04-16T10:28:14.233Z,11.91
2023-04-16T10:31:02.459Z,12.05
2023-04-16T10:33:48.192Z,12.15
2023-04-16T10:36:37.309Z,12.30
2023-04-16T10:39:24.574Z,12.52
2023-04-16T10:42:12.522Z,12.67
2023-04-16T10:45:00.703Z,12.83
2023-04-16T10:47:46.407Z,12.97
2023-04-16T10:50:38.247Z,13.06
2023-04-16T10:53:27.770Z,13.25
2023-04-16T10:56:13.366Z,13.51
2023-04-16T10:58:58.678Z,13.70
2023-04-16T11:01:46.481Z,13.72
2023-04-16T11:04:37.221Z,13.83
2023-04-16T11:07:33.776Z,13.77
2023-04-16T11:10:19.245Z,13.88
2023-04-16T11:13:06.559Z,14.08
2023-04-16T11:15:52.072Z,14.25
2023-04-16T11:18:41.640Z,14.36
2023-04-16T11:21:37.065Z,14.43
2023-04-16T11:24:23.654Z,14.41
2023-04-16T11:27:12.751Z,14.35
2023-04-16T11:30:04.229Z,14.40
2023-04-16T11:32:50.726Z,14.33
2023-04-16T11:35:37.347Z,14.16
2023-04-16T11:38:33.178Z,13.90
2023-04-16T11:41:22.087Z,13.76
2023-04-16T11:44:27.398Z,13.69
2023-04-16T11:47:13.892Z,13.59
2023-04-16T11:50:25.690Z,13.58
2023-04-16T11:53:11.377Z,13.61
2023-04-16T11:55:57.240Z,13.57
2023-04-16T11:58:43.469Z,13.52
2023-04-16T12:01:28.984Z,13.41
2023-04-16T12:04:16.550Z,13.47
2023-04-16T12:07:08.760Z,13.53
2023-04-16T12:10:06.542Z,13.63
2023-04-16T12:12:52.010Z,13.71
2023-04-16T12:15:48.614Z,13.79
2023-04-16T12:18:34.218Z,13.92
2023-04-16T12:21:19.614Z,13.99
2023-04-16T12:24:06.510Z,14.04
2023-04-16T12:26:57.574Z,14.10
2023-04-16T12:29:42.953Z,14.26
2023-04-16T12:32:28.558Z,14.44
2023-04-16T12:35:28.886Z,14.66
2023-04-16T12:38:17.486Z,14.83
2023-04-16T12:41:02.797Z,14.92
2023-04-16T12:43:48.188Z,14.98
2023-04-16T12:46:33.818Z,14.94
2023-04-16T12:49:19.359Z,14.89
2023-04-16T12:52:04.997Z,14.76
2023-04-16T12:54:51.161Z,14.66
2023-04-16T12:57:36.755Z,14.56
2023-04-16T13:00:22.691Z,14.46
2023-04-16T13:03:08.446Z,14.31
2023-04-16T13:05:54.278Z,14.23
2023-04-16T13:08:39.831Z,14.24
2023-04-16T13:11:25.635Z,14.26
2023-04-16T13:14:11.443Z,14.29
2023-04-16T13:16:57.198Z,14.35
2023-04-16T13:19:42.508Z,14.31
2023-04-16T13:22:29.909Z,14.32
2023-04-16T13:25:15.685Z,14.25
2023-04-16T13:28:01.328Z,14.27
2023-04-16T13:30:47.165Z,14.20
2023-04-16T13:33:33.135Z,14.09
2023-04-16T13:36:18.674Z,14.02
2023-04-16T13:39:11.472Z,13.89
2023-04-16T13:41:57.069Z,13.78
2023-04-16T13:44:42.742Z,13.67
2023-04-16T13:47:28.612Z,13.57
2023-04-16T13:50:14.335Z,13.63
2023-04-16T13:53:00.769Z,13.63
2023-04-16T13:55:46.696Z,13.59
2023-04-16T13:58:31.995Z,13.51
2023-04-16T14:01:18.080Z,13.50
2023-04-16T14:04:06.614Z,13.45
2023-04-16T14:06:52.744Z,13.40
2023-04-16T14:09:38.217Z,13.37
2023-04-16T14:12:24.066Z,13.25
2023-04-16T14:15:10.321Z,13.18
2023-04-16T14:17:56.195Z,13.07
2023-04-16T14:20:41.741Z,13.00
2023-04-16T14:23:27.074Z,12.99
2023-04-16T14:26:12.639Z,12.98
2023-04-16T14:28:57.841Z,12.94
2023-04-16T14:31:43.715Z,12.89
2023-04-16T14:34:29.080Z,12.88
2023-04-16T14:37:16.705Z,12.89
2023-04-16T14:40:08.340Z,12.89
2023-04-16T14:42:53.975Z,12.92
2023-04-16T14:45:39.445Z,12.93
2023-04-16T14:48:24.772Z,12.93
2023-04-16T14:51:10.501Z,13.03
2023-04-16T14:53:56.278Z,13.09
2023-04-16T14:56:42.273Z,13.46
2023-04-16T14:59:28.437Z,13.73
2023-04-16T15:02:14.568Z,14.34
2023-04-16T15:05:00.270Z,14.78
2023-04-16T15:07:46.257Z,14.92
2023-04-16T15:10:32.794Z,15.26
2023-04-16T15:13:19.230Z,15.62
2023-04-16T15:16:05.414Z,15.85
2023-04-16T15:18:51.213Z,15.85
2023-04-16T15:21:36.858Z,15.76
2023-04-16T15:24:22.548Z,15.59
2023-04-16T15:27:11.626Z,15.40
2023-04-16T15:29:57.692Z,15.21
2023-04-16T15:32:46.451Z,15.06
2023-04-16T15:35:32.150Z,15.00
2023-04-16T15:38:18.846Z,14.88
2023-04-16T15:41:04.713Z,14.37
2023-04-16T15:43:50.612Z,13.87
2023-04-16T15:46:36.389Z,13.48
2023-04-16T15:49:21.533Z,13.13
2023-04-16T15:52:07.264Z,12.87
2023-04-16T15:54:52.834Z,12.67
2023-04-16T15:57:38.599Z,12.50
2023-04-16T16:00:24.168Z,12.32
2023-04-16T16:03:10.521Z,12.16
2023-04-16T16:05:58.197Z,12.03
2023-04-16T16:08:44.898Z,11.83
2023-04-16T16:11:30.408Z,11.68
2023-04-16T16:14:18.573Z,11.56
2023-04-16T16:17:04.023Z,11.49
2023-04-16T16:19:49.469Z,11.42
2023-04-16T16:22:34.720Z,11.37
2023-04-16T16:25:20.505Z,11.34
2023-04-16T16:28:06.697Z,11.32
2023-04-16T16:30:54.782Z,11.30
2023-04-16T16:33:40.797Z,11.26
2023-04-16T16:36:27.508Z,11.19
2023-04-16T16:39:13.335Z,11.17
2023-04-16T16:41:59.085Z,11.16
2023-04-16T16:44:46.804Z,11.13
2023-04-16T16:47:33.099Z,11.08
2023-04-16T16:50:18.554Z,11.01
2023-04-16T16:53:03.880Z,10.95
2023-04-16T16:55:49.293Z,10.90
2023-04-16T16:58:34.577Z,10.86
2023-04-16T17:01:20.016Z,10.80
2023-04-16T17:04:05.966Z,10.76
2023-04-16T17:06:52.004Z,10.71
2023-04-16T17:09:38.850Z,10.59
2023-04-16T17:12:25.253Z,10.51
2023-04-16T17:15:11.456Z,10.42
2023-04-16T17:17:57.195Z,10.34
2023-04-16T17:20:42.671Z,10.25
2023-04-16T17:23:28.283Z,10.19
2023-04-16T17:26:13.624Z,10.14
2023-04-16T17:28:59.379Z,10.06
2023-04-16T17:31:45.012Z,9.95
2023-04-16T17:34:30.841Z,9.82
2023-04-16T17:37:16.404Z,9.68
2023-04-16T17:40:02.037Z,9.59
2023-04-16T17:42:49.055Z,9.52
2023-04-16T17:45:34.576Z,9.44
2023-04-16T17:48:20.148Z,9.31
2023-04-16T17:51:11.356Z,9.09
2023-04-16T17:53:57.063Z,8.87
2023-04-16T17:56:42.450Z,8.70
2023-04-16T17:59:27.967Z,8.56
2023-04-16T18:02:13.476Z,8.42
2023-04-16T18:04:59.345Z,8.28
2023-04-16T18:07:46.464Z,8.19
2023-04-16T18:10:32.914Z,8.01
2023-04-16T18:13:18.784Z,7.78
2023-04-16T18:16:04.162Z,7.56
2023-04-16T18:18:49.514Z,7.46
2023-04-16T18:21:35.755Z,7.37
2023-04-16T18:24:21.646Z,7.31
2023-04-16T18:27:07.380Z,7.24
2023-04-16T18:29:54.839Z,7.20
2023-04-16T18:32:59.891Z,7.14
2023-04-16T18:35:46.702Z,7.09
2023-04-16T18:38:32.722Z,7.04
2023-04-16T18:41:19.389Z,6.98
2023-04-16T18:44:05.149Z,6.88
2023-04-16T18:46:51.287Z,6.82
2023-04-16T18:49:36.862Z,6.66
2023-04-16T18:52:22.450Z,6.56
2023-04-16T18:55:08.400Z,6.47
2023-04-16T18:57:55.141Z,6.36
2023-04-16T19:00:40.916Z,6.29
2023-04-16T19:03:31.009Z,6.24
2023-04-16T19:06:16.782Z,6.21
2023-04-16T19:09:02.146Z,6.19
2023-04-16T19:11:50.561Z,6.18
2023-04-16T19:14:36.082Z,6.18
2023-04-16T19:17:21.816Z,6.18
2023-04-16T19:20:11.449Z,6.18
2023-04-16T19:22:57.074Z,6.11
2023-04-16T19:25:42.788Z,6.09
2023-04-16T19:28:28.492Z,6.08
2023-04-16T19:31:13.974Z,6.10
2023-04-16T19:33:59.344Z,6.15
2023-04-16T19:36:46.059Z,6.19
2023-04-16T19:39:32.581Z,6.23
2023-04-16T19:42:18.381Z,6.26
2023-04-16T19:45:04.087Z,6.29
2023-04-16T19:47:51.255Z,6.32
2023-04-16T19:50:40.416Z,6.36
2023-04-16T19:53:25.634Z,6.39
2023-04-16T19:56:11.255Z,6.41
2023-04-16T19:58:57.058Z,6.43
2023-04-16T20:01:42.808Z,6.47
2023-04-16T20:04:28.400Z,6.49
2023-04-16T20:07:13.804Z,6.52
2023-04-16T20:09:59.133Z,6.56
2023-04-16T20:12:44.898Z,6.58
2023-04-16T20:15:30.119Z,6.60
2023-04-16T20:18:15.501Z,6.63
2023-04-16T20:21:03.774Z,6.65
2023-04-16T20:23:49.278Z,6.65
2023-04-16T20:26:36.493Z,6.64
2023-04-16T20:29:22.182Z,6.62
2023-04-16T20:32:07.687Z,6.62
2023-04-16T20:34:53.771Z,6.62
2023-04-16T20:37:39.870Z,6.61
2023-04-16T20:40:30.264Z,6.59
2023-04-16T20:43:18.723Z,6.53
2023-04-16T20:46:07.926Z,6.45
2023-04-16T20:48:53.614Z,6.40
2023-04-16T20:51:39.031Z,6.37
2023-04-16T20:54:24.612Z,6.35
2023-04-16T20:57:10.779Z,6.31
2023-04-16T20:59:56.473Z,6.30
2023-04-16T21:02:43.515Z,6.28
2023-04-16T21:05:30.044Z,6.26
2023-04-16T21:08:17.255Z,6.26
2023-04-16T21:11:02.745Z,6.24
2023-04-16T21:13:48.410Z,6.21
2023-04-16T21:16:33.913Z,6.16
2023-04-16T21:19:20.110Z,6.10
2023-04-16T21:22:05.754Z,6.03
2023-04-16T21:24:51.319Z,6.01
2023-04-16T21:27:36.775Z,5.99
2023-04-16T21:30:22.749Z,5.94
2023-04-16T21:33:08.119Z,5.85
2023-04-16T21:35:54.202Z,5.82
2023-04-16T21:38:39.899Z,5.80
2023-04-16T21:41:25.289Z,5.77
2023-04-16T21:44:11.173Z,5.75
2023-04-16T21:46:57.239Z,5.73
2023-04-16T21:49:42.812Z,5.69
2023-04-16T21:52:28.589Z,5.66
2023-04-16T21:55:17.017Z,5.62
2023-04-16T21:58:03.875Z,5.58
2023-04-16T22:00:49.519Z,5.54
2023-04-16T22:03:40.274Z,5.49
2023-04-16T22:06:27.292Z,5.45
2023-04-16T22:09:13.014Z,5.42
2023-04-16T22:12:00.387Z,5.39
2023-04-16T22:14:59.503Z,5.36
2023-04-16T22:17:48.532Z,5.30
2023-04-16T22:20:38.869Z,5.25
2023-04-16T22:23:25.763Z,5.17
2023-04-16T22:26:12.878Z,5.11
2023-04-16T22:28:58.530Z,5.05
2023-04-16T22:31:44.119Z,4.98
2023-04-16T22:34:29.872Z,4.94
2023-04-16T22:37:15.967Z,4.92
2023-04-16T22:40:01.668Z,4.89
2023-04-16T22:42:47.797Z,4.90
2023-04-16T22:45:33.382Z,4.89
2023-04-16T22:48:18.754Z,4.91
2023-04-16T22:51:13.239Z,4.94
2023-04-16T22:53:58.512Z,4.97
2023-04-16T22:56:43.882Z,5.00
2023-04-16T22:59:29.372Z,5.03
2023-04-16T23:02:14.803Z,5.07
2023-04-16T23:05:00.763Z,5.10
2023-04-16T23:07:46.423Z,5.13
2023-04-16T23:10:32.137Z,5.19
2023-04-16T23:13:17.868Z,5.23
2023-04-16T23:16:03.562Z,5.27
2023-04-16T23:18:48.913Z,5.30
2023-04-16T23:21:34.336Z,5.33
2023-04-16T23:24:19.842Z,5.33
2023-04-16T23:27:05.460Z,5.31
2023-04-16T23:29:50.748Z,5.28
2023-04-16T23:32:36.618Z,5.23
2023-04-16T23:35:23.003Z,5.18
2023-04-16T23:38:08.645Z,5.12
2023-04-16T23:40:54.024Z,5.03
2023-04-16T23:43:40.723Z,4.94
2023-04-16T23:46:26.358Z,4.79
2023-04-16T23:49:12.320Z,4.67
2023-04-16T23:51:57.785Z,4.59
2023-04-16T23:54:43.212Z,4.54
2023-04-16T23:57:28.600Z,4.49
